Buoy 33880

sailwx.info

Track history (hours):
 
Tides and Currents Weather Stations Pressure Air Temp Water Temp Dewpoint Dewpoint Depression Visibility Wind Speed Wind Dir Waves Ship Positions

Drifting buoy 33880

Last reported at 2017-Jun-26 10:00 UTC. Time now 2017-Jun-26 14:03 UTC.
Position S 34°10' W 020°53'.

Date/timePositionNaut miles runAvg speedWind from/ knotsBaromVisibWave heightAir tempDewpointWater temp
2017-Jun-26 10:00S 34°10' W 020°53'1 0.3
2017-Jun-26 08:00S 34°10' W 020°53'1 0.3
2017-Jun-26 05:00S 34°10' W 020°55'0 0.0
2017-Jun-26 04:00S 34°10' W 020°55'1 1.0
2017-Jun-26 03:00S 34°10' W 020°56'0 0.0
2017-Jun-26 00:00S 34°10' W 020°56'1 0.6
2017-Jun-25 23:00S 34°09' W 020°56'2 0.7
2017-Jun-25 20:00S 34°08' W 020°58'0 0.0
2017-Jun-25 19:00S 34°08' W 020°58'0 0.5
2017-Jun-25 18:00S 34°08' W 020°59'1 1.2
2017-Jun-25 17:00S 34°08' W 021°00'0 0.0
2017-Jun-25 16:00S 34°08' W 021°00'4 0.8
2017-Jun-25 11:00S 34°04' W 021°02'1 0.6
2017-Jun-25 10:00S 34°04' W 021°02'1 0.8
2017-Jun-25 09:00S 34°03' W 021°03'0 0.0
2017-Jun-25 08:00S 34°03' W 021°03'3 0.7
2017-Jun-25 04:00S 34°02' W 021°06'1 0.1
2017-Jun-25 00:00S 34°01' W 021°06'0 0.0
2017-Jun-24 23:00S 34°01' W 021°06'1 0.8
2017-Jun-24 22:00S 34°01' W 021°07'2 0.9
2017-Jun-24 20:00S 33°59' W 021°07'1 0.6
2017-Jun-24 18:00S 33°58' W 021°06'1 0.2
2017-Jun-24 11:00S 33°57' W 021°05'1 0.3
2017-Jun-24 07:00S 33°56' W 021°04'2 0.4
2017-Jun-24 02:00S 33°55' W 021°05'0 0.2
2017-Jun-24 00:00S 33°55' W 021°04'0 0.0
2017-Jun-23 23:00S 33°55' W 021°04'1 0.6
2017-Jun-23 22:00S 33°54' W 021°04'1 0.8
2017-Jun-23 21:00S 33°53' W 021°04'1 1.0
2017-Jun-23 20:00S 33°53' W 021°02'0 0.2
2017-Jun-23 18:00S 33°53' W 021°02'0 0.0
2017-Jun-23 17:00S 33°53' W 021°02'2 1.6
2017-Jun-23 16:00S 33°55' W 021°01'1 0.1
2017-Jun-23 11:00S 33°55' W 021°01'0 0.0
2017-Jun-23 10:00S 33°55' W 021°01'0 0.5
2017-Jun-23 09:00S 33°55' W 021°00'1 0.6
2017-Jun-23 08:00S 33°55' W 021°00'1 0.6
2017-Jun-23 06:00S 33°53' W 021°00'1 0.4
2017-Jun-23 04:00S 33°53' W 020°59'0 0.0
2017-Jun-23 02:00S 33°53' W 020°59'1 0.6
2017-Jun-23 00:00S 33°53' W 020°58'1 0.6
2017-Jun-22 23:00S 33°53' W 020°58'0 0.5
2017-Jun-22 22:00S 33°53' W 020°58'1 0.6
2017-Jun-22 21:00S 33°53' W 020°58'0 0.2
2017-Jun-22 19:00S 33°53' W 020°57'0 0.2
2017-Jun-22 17:00S 33°53' W 020°56'1 0.1
2017-Jun-22 10:00S 33°54' W 020°56'1 0.3
2017-Jun-22 08:00S 33°53' W 020°56'1 0.6
2017-Jun-22 06:00S 33°53' W 020°55'0 0.0
2017-Jun-22 03:00S 33°53' W 020°55'0 0.0
2017-Jun-22 02:00S 33°53' W 020°55'2 0.7
2017-Jun-21 23:00S 33°52' W 020°52'1 0.8
2017-Jun-21 22:00S 33°53' W 020°52'0 0.2
2017-Jun-21 19:00S 33°53' W 020°51'0 0.0
2017-Jun-21 18:00S 33°53' W 020°51'0 0.5
2017-Jun-21 17:00S 33°53' W 020°50'0 0.2
2017-Jun-21 15:00S 33°53' W 020°50'2 0.3
2017-Jun-21 10:00S 33°54' W 020°49'0 0.0
2017-Jun-21 09:00S 33°54' W 020°49'1 0.8
2017-Jun-21 08:00S 33°53' W 020°48'0 0.0
2017-Jun-21 07:00S 33°53' W 020°48'1 0.3
2017-Jun-21 05:00S 33°53' W 020°48'1 0.4
2017-Jun-21 03:00S 33°52' W 020°47'1 0.3
2017-Jun-21 00:00S 33°52' W 020°46'1 1.0
2017-Jun-20 23:00S 33°52' W 020°45'1 0.6
2017-Jun-20 22:00S 33°53' W 020°45'1 1.2
2017-Jun-20 21:00S 33°54' W 020°45'0 0.0
2017-Jun-20 20:00S 33°54' W 020°45'0 0.5
2017-Jun-20 19:00S 33°54' W 020°44'1 0.8
2017-Jun-20 18:00S 33°55' W 020°45'1 1.0
2017-Jun-20 17:00S 33°55' W 020°46'0 0.0
2017-Jun-20 15:00S 33°55' W 020°46'1 0.3
2017-Jun-20 11:00S 33°53' W 020°47'0 0.5
2017-Jun-20 10:00S 33°53' W 020°46'0 0.5
2017-Jun-20 09:00S 33°53' W 020°47'0 0.0
2017-Jun-20 07:00S 33°53' W 020°47'1 0.5
2017-Jun-20 05:00S 33°53' W 020°48'0 0.1
2017-Jun-20 00:00S 33°53' W 020°49'0 0.5
2017-Jun-19 23:00S 33°53' W 020°48'0 0.0
2017-Jun-19 22:00S 33°53' W 020°48'1 1.0
2017-Jun-19 21:00S 33°53' W 020°49'1 0.7
2017-Jun-19 19:00S 33°53' W 020°51'1 0.6
2017-Jun-19 17:00S 33°53' W 020°52'0 0.0
2017-Jun-19 16:00S 33°53' W 020°52'0 0.0
2017-Jun-19 15:00S 33°53' W 020°52'3 0.6
2017-Jun-19 11:00S 33°50' W 020°53'0 0.0
2017-Jun-19 09:00S 33°50' W 020°53'0 0.5
2017-Jun-19 08:00S 33°50' W 020°54'1 0.5
2017-Jun-19 06:00S 33°50' W 020°55'0 0.0
2017-Jun-19 05:00S 33°50' W 020°55'1 0.2
2017-Jun-19 00:00S 33°50' W 020°56'1 0.6
2017-Jun-18 23:00S 33°50' W 020°56'0 0.5
2017-Jun-18 22:00S 33°50' W 020°57'1 0.6
2017-Jun-18 21:00S 33°49' W 020°57'0 0.0
2017-Jun-18 19:00S 33°49' W 020°57'1 0.6
2017-Jun-18 18:00S 33°50' W 020°57'0 0.5
2017-Jun-18 17:00S 33°50' W 020°58'0 0.0
2017-Jun-18 16:00S 33°50' W 020°58'1 0.2
2017-Jun-18 11:00S 33°50' W 020°59'1 0.6
2017-Jun-18 10:00S 33°50' W 020°59'0 0.5
2017-Jun-18 09:00S 33°50' W 020°58'1 1.0
2017-Jun-18 08:00S 33°50' W 020°59'1 0.3
2017-Jun-18 06:00S 33°50' W 020°59'0 0.0
2017-Jun-18 04:00S 33°50' W 020°59'2 0.4
2017-Jun-18 00:00S 33°49' W 021°01'1 0.8
2017-Jun-17 23:00S 33°48' W 021°01'2 1.6
2017-Jun-17 22:00S 33°47' W 021°02'0 0.0
2017-Jun-17 19:00S 33°47' W 021°02'1 1.0
2017-Jun-17 18:00S 33°47' W 021°04'0 0.0
2017-Jun-17 16:00S 33°47' W 021°04'3 0.5
2017-Jun-17 10:00S 33°47' W 021°07'0 0.5
2017-Jun-17 09:00S 33°47' W 021°08'0 0.0
2017-Jun-17 08:00S 33°47' W 021°08'1 0.8
2017-Jun-17 07:00S 33°48' W 021°08'0 0.0
2017-Jun-17 05:00S 33°48' W 021°08'2 0.4
2017-Jun-17 00:00S 33°49' W 021°11'0 0.0
2017-Jun-16 23:00S 33°49' W 021°11'0 0.0
2017-Jun-16 22:00S 33°49' W 021°11'2 0.8
2017-Jun-16 20:00S 33°50' W 021°12'2 0.8
2017-Jun-16 18:00S 33°51' W 021°11'0 0.0
2017-Jun-16 17:00S 33°51' W 021°11'4 0.5
2017-Jun-16 10:00S 33°55' W 021°10'  
Track history (hours):
 
Tides and Currents Weather Stations Pressure Air Temp Water Temp Dewpoint Dewpoint Depression Visibility Wind Speed Wind Dir Waves Ship Positions

Drifting buoy 33880

Last reported at 2017-Jun-26 10:00 UTC. Time now 2017-Jun-26 14:03 UTC.
Position S 34°10' W 020°53'.

Date/timePositionNaut miles runAvg speedWind from/ knotsBaromVisibWave heightAir tempDewpointWater temp
2017-Jun-26 10:00S 34°10' W 020°53'1 0.3
2017-Jun-26 08:00S 34°10' W 020°53'1 0.3
2017-Jun-26 05:00S 34°10' W 020°55'0 0.0
2017-Jun-26 04:00S 34°10' W 020°55'1 1.0
2017-Jun-26 03:00S 34°10' W 020°56'0 0.0
2017-Jun-26 00:00S 34°10' W 020°56'1 0.6
2017-Jun-25 23:00S 34°09' W 020°56'2 0.7
2017-Jun-25 20:00S 34°08' W 020°58'0 0.0
2017-Jun-25 19:00S 34°08' W 020°58'0 0.5
2017-Jun-25 18:00S 34°08' W 020°59'1 1.2
2017-Jun-25 17:00S 34°08' W 021°00'0 0.0
2017-Jun-25 16:00S 34°08' W 021°00'4 0.8
2017-Jun-25 11:00S 34°04' W 021°02'1 0.6
2017-Jun-25 10:00S 34°04' W 021°02'1 0.8
2017-Jun-25 09:00S 34°03' W 021°03'0 0.0
2017-Jun-25 08:00S 34°03' W 021°03'3 0.7
2017-Jun-25 04:00S 34°02' W 021°06'1 0.1
2017-Jun-25 00:00S 34°01' W 021°06'0 0.0
2017-Jun-24 23:00S 34°01' W 021°06'1 0.8
2017-Jun-24 22:00S 34°01' W 021°07'2 0.9
2017-Jun-24 20:00S 33°59' W 021°07'1 0.6
2017-Jun-24 18:00S 33°58' W 021°06'1 0.2
2017-Jun-24 11:00S 33°57' W 021°05'1 0.3
2017-Jun-24 07:00S 33°56' W 021°04'2 0.4
2017-Jun-24 02:00S 33°55' W 021°05'0 0.2
2017-Jun-24 00:00S 33°55' W 021°04'0 0.0
2017-Jun-23 23:00S 33°55' W 021°04'1 0.6
2017-Jun-23 22:00S 33°54' W 021°04'1 0.8
2017-Jun-23 21:00S 33°53' W 021°04'1 1.0
2017-Jun-23 20:00S 33°53' W 021°02'0 0.2
2017-Jun-23 18:00S 33°53' W 021°02'0 0.0
2017-Jun-23 17:00S 33°53' W 021°02'2 1.6
2017-Jun-23 16:00S 33°55' W 021°01'1 0.1
2017-Jun-23 11:00S 33°55' W 021°01'0 0.0
2017-Jun-23 10:00S 33°55' W 021°01'0 0.5
2017-Jun-23 09:00S 33°55' W 021°00'1 0.6
2017-Jun-23 08:00S 33°55' W 021°00'1 0.6
2017-Jun-23 06:00S 33°53' W 021°00'1 0.4
2017-Jun-23 04:00S 33°53' W 020°59'0 0.0
2017-Jun-23 02:00S 33°53' W 020°59'1 0.6
2017-Jun-23 00:00S 33°53' W 020°58'1 0.6
2017-Jun-22 23:00S 33°53' W 020°58'0 0.5
2017-Jun-22 22:00S 33°53' W 020°58'1 0.6
2017-Jun-22 21:00S 33°53' W 020°58'0 0.2
2017-Jun-22 19:00S 33°53' W 020°57'0 0.2
2017-Jun-22 17:00S 33°53' W 020°56'1 0.1
2017-Jun-22 10:00S 33°54' W 020°56'1 0.3
2017-Jun-22 08:00S 33°53' W 020°56'1 0.6
2017-Jun-22 06:00S 33°53' W 020°55'0 0.0
2017-Jun-22 03:00S 33°53' W 020°55'0 0.0
2017-Jun-22 02:00S 33°53' W 020°55'2 0.7
2017-Jun-21 23:00S 33°52' W 020°52'1 0.8
2017-Jun-21 22:00S 33°53' W 020°52'0 0.2
2017-Jun-21 19:00S 33°53' W 020°51'0 0.0
2017-Jun-21 18:00S 33°53' W 020°51'0 0.5
2017-Jun-21 17:00S 33°53' W 020°50'0 0.2
2017-Jun-21 15:00S 33°53' W 020°50'2 0.3
2017-Jun-21 10:00S 33°54' W 020°49'0 0.0
2017-Jun-21 09:00S 33°54' W 020°49'1 0.8
2017-Jun-21 08:00S 33°53' W 020°48'0 0.0
2017-Jun-21 07:00S 33°53' W 020°48'1 0.3
2017-Jun-21 05:00S 33°53' W 020°48'1 0.4
2017-Jun-21 03:00S 33°52' W 020°47'1 0.3
2017-Jun-21 00:00S 33°52' W 020°46'1 1.0
2017-Jun-20 23:00S 33°52' W 020°45'1 0.6
2017-Jun-20 22:00S 33°53' W 020°45'1 1.2
2017-Jun-20 21:00S 33°54' W 020°45'0 0.0
2017-Jun-20 20:00S 33°54' W 020°45'0 0.5
2017-Jun-20 19:00S 33°54' W 020°44'1 0.8
2017-Jun-20 18:00S 33°55' W 020°45'1 1.0
2017-Jun-20 17:00S 33°55' W 020°46'0 0.0
2017-Jun-20 15:00S 33°55' W 020°46'1 0.3
2017-Jun-20 11:00S 33°53' W 020°47'0 0.5
2017-Jun-20 10:00S 33°53' W 020°46'0 0.5
2017-Jun-20 09:00S 33°53' W 020°47'0 0.0
2017-Jun-20 07:00S 33°53' W 020°47'1 0.5
2017-Jun-20 05:00S 33°53' W 020°48'0 0.1
2017-Jun-20 00:00S 33°53' W 020°49'0 0.5
2017-Jun-19 23:00S 33°53' W 020°48'0 0.0
2017-Jun-19 22:00S 33°53' W 020°48'1 1.0
2017-Jun-19 21:00S 33°53' W 020°49'1 0.7
2017-Jun-19 19:00S 33°53' W 020°51'1 0.6
2017-Jun-19 17:00S 33°53' W 020°52'0 0.0
2017-Jun-19 16:00S 33°53' W 020°52'0 0.0
2017-Jun-19 15:00S 33°53' W 020°52'3 0.6
2017-Jun-19 11:00S 33°50' W 020°53'0 0.0
2017-Jun-19 09:00S 33°50' W 020°53'0 0.5
2017-Jun-19 08:00S 33°50' W 020°54'1 0.5
2017-Jun-19 06:00S 33°50' W 020°55'0 0.0
2017-Jun-19 05:00S 33°50' W 020°55'1 0.2
2017-Jun-19 00:00S 33°50' W 020°56'1 0.6
2017-Jun-18 23:00S 33°50' W 020°56'0 0.5
2017-Jun-18 22:00S 33°50' W 020°57'1 0.6
2017-Jun-18 21:00S 33°49' W 020°57'0 0.0
2017-Jun-18 19:00S 33°49' W 020°57'1 0.6
2017-Jun-18 18:00S 33°50' W 020°57'0 0.5
2017-Jun-18 17:00S 33°50' W 020°58'0 0.0
2017-Jun-18 16:00S 33°50' W 020°58'1 0.2
2017-Jun-18 11:00S 33°50' W 020°59'1 0.6
2017-Jun-18 10:00S 33°50' W 020°59'0 0.5
2017-Jun-18 09:00S 33°50' W 020°58'1 1.0
2017-Jun-18 08:00S 33°50' W 020°59'1 0.3
2017-Jun-18 06:00S 33°50' W 020°59'0 0.0
2017-Jun-18 04:00S 33°50' W 020°59'2 0.4
2017-Jun-18 00:00S 33°49' W 021°01'1 0.8
2017-Jun-17 23:00S 33°48' W 021°01'2 1.6
2017-Jun-17 22:00S 33°47' W 021°02'0 0.0
2017-Jun-17 19:00S 33°47' W 021°02'1 1.0
2017-Jun-17 18:00S 33°47' W 021°04'0 0.0
2017-Jun-17 16:00S 33°47' W 021°04'3 0.5
2017-Jun-17 10:00S 33°47' W 021°07'0 0.5
2017-Jun-17 09:00S 33°47' W 021°08'0 0.0
2017-Jun-17 08:00S 33°47' W 021°08'1 0.8
2017-Jun-17 07:00S 33°48' W 021°08'0 0.0
2017-Jun-17 05:00S 33°48' W 021°08'2 0.4
2017-Jun-17 00:00S 33°49' W 021°11'0 0.0
2017-Jun-16 23:00S 33°49' W 021°11'0 0.0
2017-Jun-16 22:00S 33°49' W 021°11'2 0.8
2017-Jun-16 20:00S 33°50' W 021°12'2 0.8
2017-Jun-16 18:00S 33°51' W 021°11'0 0.0
2017-Jun-16 17:00S 33°51' W 021°11'4 0.5
2017-Jun-16 10:00S 33°55' W 021°10'  

Dump ship's entire track history